Storm Events Database

Event Details

Event Thunderstorm Wind
Magnitude 50 kts.
State MISSISSIPPI
County/Area FORREST
WFO JAN
Begin Date 05/31/2012 15:50:00 CST-6
Begin Range 1
Begin Azimuth W
Begin Location HATTIESBURG
Begin Lat/Lon 31.32/-89.33
End Date 05/31/2012 16:10:00 CST-6
End Range 1
End Azimuth ESE
End Location MACEDONIA
End Lat/Lon 31.38/-89.17
Deaths Direct/Indirect 0/0 (fatality details below, when available...)
Injuries Direct/Indirect 0/0
Property Damage 20.00K
Crop Damage 0.00K
Episode Narrative A mesoscale convective system (MCS) began impacting the delta region of Mississippi around mid day on the 30th moving southeast across the region through the afternoon and into the evening hours. Widespread wind damage occurred with this activity, along with a few reports of large hail. Flash flooding impacted a few areas as well. On the 31st, widespread showers and thunderstorms developed along and west of the Mississippi River moving east through the afternoon and into the evening hours. Once again, widespread wind damage occurred as this activity passed.
Event Narrative Numerous trees were blown down around Hattiesburg and Brooklyn. Shingles on a home were damaged in Eastabuchie.


All events for this episode:

Location County/Zone St. Date Time T.Z. Type Mag Dth Inj PrD CrD
Totals: 0 4 631.00K 0.00K
BENOIT BOLIVAR CO. MS 05/30/2012 11:30 CST-6 Thunderstorm Wind 43 kts. EG 0 0 0.50K 0.00K
BOYLE BOLIVAR CO. MS 05/30/2012 12:25 CST-6 Thunderstorm Wind 50 kts. EG 0 0 15.00K 0.00K
GREENVILLE WASHINGTON CO. MS 05/30/2012 12:37 CST-6 Hail 0.88 in. 0 0 0.00K 0.00K
INVERNESS SUNFLOWER CO. MS 05/30/2012 12:52 CST-6 Thunderstorm Wind 55 kts. EG 0 0 12.00K 0.00K
MOORHEAD SUNFLOWER CO. MS 05/30/2012 13:05 CST-6 Hail 1.00 in. 0 0 0.00K 0.00K
OSWEGO HOLMES CO. MS 05/30/2012 13:57 CST-6 Hail 1.00 in. 0 0 0.00K 0.00K
GREENVILLE WASHINGTON CO. MS 05/30/2012 14:25 CST-6 Flash Flood 0 0 0.00K 0.00K
BETHEDEN WINSTON CO. MS 05/30/2012 15:11 CST-6 Thunderstorm Wind 50 kts. EG 0 0 40.00K 0.00K
SCOOBA KEMPER CO. MS 05/30/2012 15:45 CST-6 Thunderstorm Wind 50 kts. EG 0 0 5.00K 0.00K
FLOWOOD RANKIN CO. MS 05/30/2012 16:05 CST-6 Hail 0.88 in. 0 0 0.00K 0.00K
NEWTON NEWTON CO. MS 05/30/2012 16:30 CST-6 Thunderstorm Wind 40 kts. EG 0 0 3.00K 0.00K
NATIONAL CEMETERY WARREN CO. MS 05/30/2012 16:30 CST-6 Thunderstorm Wind 50 kts. EG 0 0 4.00K 0.00K
LAUDERDALE LAUDERDALE CO. MS 05/30/2012 16:50 CST-6 Hail 0.88 in. 0 0 0.00K 0.00K
JASPER (ZONE) JASPER (ZONE) MS 05/30/2012 17:00 CST-6 Strong Wind 40 kts. EG 0 0 3.00K 0.00K
SHADY GROVE COPIAH CO. MS 05/30/2012 17:10 CST-6 Thunderstorm Wind 50 kts. EG 0 0 10.00K 0.00K
HEUCKS LINCOLN CO. MS 05/30/2012 17:15 CST-6 Thunderstorm Wind 50 kts. EG 0 0 4.00K 0.00K
JASPER (ZONE) JASPER (ZONE) MS 05/30/2012 17:20 CST-6 Strong Wind 40 kts. EG 0 0 3.00K 0.00K
UNION HALL LINCOLN CO. MS 05/30/2012 18:05 CST-6 Hail 0.88 in. 0 0 0.00K 0.00K
LAUREL JONES CO. MS 05/30/2012 18:15 CST-6 Thunderstorm Wind 50 kts. EG 0 0 40.00K 0.00K
UNION HALL LINCOLN CO. MS 05/30/2012 18:34 CST-6 Hail 0.88 in. 0 0 0.00K 0.00K
ADAMS (ZONE) ADAMS (ZONE) MS 05/30/2012 18:38 CST-6 Strong Wind 36 kts. EG 0 0 0.50K 0.00K
MARION (ZONE) MARION (ZONE) MS 05/30/2012 18:45 CST-6 Strong Wind 40 kts. EG 0 0 15.00K 0.00K
RIDGELAND MADISON CO. MS 05/30/2012 19:49 CST-6 Hail 0.75 in. 0 0 0.00K 0.00K
VICKSBURG WARREN CO. MS 05/31/2012 12:45 CST-6 Thunderstorm Wind 50 kts. EG 0 0 5.00K 0.00K
VICKSBURG WARREN CO. MS 05/31/2012 12:45 CST-6 Hail 0.75 in. 0 0 0.00K 0.00K
LAKE CITY HUMPHREYS CO. MS 05/31/2012 12:50 CST-6 Lightning 0 0 10.00K 0.00K
GREENWOOD LEFLORE CO. MS 05/31/2012 13:00 CST-6 Thunderstorm Wind 50 kts. EG 0 0 10.00K 0.00K
CARTHAGE ADAMS CO. MS 05/31/2012 13:04 CST-6 Thunderstorm Wind 50 kts. EG 0 0 2.00K 0.00K
GRANGE HALL WARREN CO. MS 05/31/2012 13:13 CST-6 Thunderstorm Wind 50 kts. EG 0 0 1.00K 0.00K
CARROLLTON CARROLL CO. MS 05/31/2012 13:30 CST-6 Thunderstorm Wind 50 kts. EG 0 0 20.00K 0.00K
BOW SPGS GRENADA CO. MS 05/31/2012 13:45 CST-6 Thunderstorm Wind 50 kts. EG 0 0 1.00K 0.00K
TERRY HINDS CO. MS 05/31/2012 13:55 CST-6 Thunderstorm Wind 50 kts. EG 0 0 20.00K 0.00K
WINONA MONTGOMERY CO. MS 05/31/2012 14:03 CST-6 Thunderstorm Wind 50 kts. EG 0 0 4.00K 0.00K
CANTON MADISON CO. MS 05/31/2012 14:22 CST-6 Thunderstorm Wind 52 kts. EG 0 0 20.00K 0.00K
GALLATIN COPIAH CO. MS 05/31/2012 14:30 CST-6 Thunderstorm Wind 50 kts. EG 0 4 30.00K 0.00K
LANGFORD RANKIN CO. MS 05/31/2012 14:33 CST-6 Thunderstorm Wind 50 kts. EG 0 0 5.00K 0.00K
MONTICELLO LAWRENCE CO. MS 05/31/2012 14:36 CST-6 Thunderstorm Wind 50 kts. EG 0 0 30.00K 0.00K
COLUMBIA MARION CO. MS 05/31/2012 14:50 CST-6 Thunderstorm Wind 40 kts. EG 0 0 15.00K 0.00K
CARTHAGE LEAKE CO. MS 05/31/2012 15:00 CST-6 Thunderstorm Wind 50 kts. EG 0 0 15.00K 0.00K
D LO SIMPSON CO. MS 05/31/2012 15:00 CST-6 Thunderstorm Wind 50 kts. EG 0 0 25.00K 0.00K
SAPA WEBSTER CO. MS 05/31/2012 15:18 CST-6 Thunderstorm Wind 50 kts. EG 0 0 5.00K 0.00K
MT OLIVE COVINGTON CO. MS 05/31/2012 15:20 CST-6 Thunderstorm Wind 50 kts. EG 0 0 15.00K 0.00K
RALEIGH SMITH CO. MS 05/31/2012 15:30 CST-6 Thunderstorm Wind 50 kts. EG 0 0 15.00K 0.00K
OAK BOWERY JONES CO. MS 05/31/2012 15:35 CST-6 Thunderstorm Wind 55 kts. EG 0 0 40.00K 0.00K
TALOWAH LAMAR CO. MS 05/31/2012 15:41 CST-6 Thunderstorm Wind 50 kts. EG 0 0 3.00K 0.00K
HATTIESBURG FORREST CO. MS 05/31/2012 15:50 CST-6 Thunderstorm Wind 50 kts. EG 0 0 20.00K 0.00K
LOUIN JASPER CO. MS 05/31/2012 15:50 CST-6 Thunderstorm Wind 50 kts. EG 0 0 5.00K 0.00K
LOUIN JASPER CO. MS 05/31/2012 15:50 CST-6 Thunderstorm Wind 50 kts. EG 0 0 6.00K 0.00K
LAKE SCOTT CO. MS 05/31/2012 15:52 CST-6 Thunderstorm Wind 50 kts. EG 0 0 4.00K 0.00K
HAZEL NEWTON CO. MS 05/31/2012 16:08 CST-6 Thunderstorm Wind 50 kts. EG 0 0 70.00K 0.00K
CHUNKY NEWTON CO. MS 05/31/2012 16:40 CST-6 Thunderstorm Wind 50 kts. EG 0 0 5.00K 0.00K
MERIDIAN LAUDERDALE CO. MS 05/31/2012 16:53 CST-6 Thunderstorm Wind 50 kts. EG 0 0 75.00K 0.00K
Totals: 0 4 631.00K 0.00K